Time;durP1;ratioP1;P1;durP2;ratioP2;P2;SDS_P1;SDS_P2;PMS_P1;PMS_P2;Temp;Humidity;BMP_temperature;BMP_pressure;BME280_temperature;BME280_humidity;BME280_pressure;Samples;Min_cycle;Max_cycle;Signal;HPM_P1;HPM_P2
2023/05/31 00:00:46;;;;;;;;;;;;;;;12.99;49.47;96744.78;5106475;28;19961;-72
2023/05/31 00:03:13;;;;;;;;;;;;;;;12.93;51.11;96746.50;5107394;28;20016;-71
2023/05/31 00:05:38;;;;;;;;;;;;;;;12.91;50.87;96745.13;5107356;28;19956;-80
2023/05/31 00:08:04;;;;;;;;;;;;;;;12.89;51.79;96749.81;5107309;28;19970;-85
2023/05/31 00:10:30;;;;;;;;;;;;;;;12.89;50.41;96741.91;5088644;28;19956;-83
2023/05/31 00:12:56;;;;;;;;;;;;;;;12.89;50.15;96742.72;5072562;28;19972;-85
2023/05/31 00:15:22;;;;;;;;;;;;;;;12.88;51.38;96743.75;5106753;28;19985;-83
2023/05/31 00:17:48;;;;;;;;;;;;;;;12.86;51.77;96737.09;5106660;28;20238;-83
2023/05/31 00:20:13;;;;;;;;;;;;;;;12.83;51.06;96733.09;5106723;28;19947;-84
2023/05/31 00:22:39;;;;;;;;;;;;;;;12.79;52.28;96732.75;5106761;28;19966;-83
2023/05/31 00:25:05;;;;;;;;;;;;;;;12.79;52.09;96734.56;5106705;28;19953;-77
2023/05/31 00:27:31;;;;;;;;;;;;;;;12.77;51.97;96734.78;5106697;28;20145;-76
2023/05/31 00:29:57;;;;;;;;;;;;;;;12.76;52.51;96735.00;5106755;28;19953;-76
2023/05/31 00:32:23;;;;;;;;;;;;;;;12.73;51.51;96735.47;5106633;28;19966;-75
2023/05/31 00:34:49;;;;;;;;;;;;;;;12.72;52.05;96733.84;5106820;28;19957;-76
2023/05/31 00:37:14;;;;;;;;;;;;;;;12.71;52.35;96734.88;5106716;28;19953;-76
2023/05/31 00:39:40;;;;;;;;;;;;;;;12.70;53.22;96736.69;5106662;28;19975;-76
2023/05/31 00:42:06;;;;;;;;;;;;;;;12.69;52.11;96729.84;5106038;28;19981;-76
2023/05/31 00:44:32;;;;;;;;;;;;;;;12.67;53.09;96731.91;5106467;28;19957;-73
2023/05/31 00:46:58;;;;;;;;;;;;;;;12.66;51.41;96734.75;5106517;28;19998;-71
2023/05/31 00:49:26;;;;;;;;;;;;;;;12.67;52.98;96731.09;5106680;28;19956;-71
2023/05/31 00:51:53;;;;;;;;;;;;;;;12.66;51.98;96740.81;5105965;28;19972;-72
2023/05/31 00:54:19;;;;;;;;;;;;;;;12.63;51.71;96738.63;5106111;28;19958;-72
2023/05/31 00:56:45;;;;;;;;;;;;;;;12.62;53.63;96737.03;5106089;28;19957;-72
2023/05/31 00:59:11;;;;;;;;;;;;;;;12.62;52.44;96739.66;5106064;28;20150;-71
2023/05/31 01:01:37;;;;;;;;;;;;;;;12.59;53.58;96734.84;5106120;28;20235;-80
2023/05/31 01:04:03;;;;;;;;;;;;;;;12.59;52.43;96729.56;5106149;28;19958;-76
2023/05/31 01:06:31;;;;;;;;;;;;;;;12.62;51.66;96733.59;5106116;28;19954;-76
2023/05/31 01:08:59;;;;;;;;;;;;;;;12.63;51.64;96728.09;5106057;28;19963;-76
2023/05/31 01:11:40;;;;;;;;;;;;;;;12.64;53.47;96740.25;5104516;28;20229;-76
2023/05/31 01:14:25;;;;;;;;;;;;;;;12.64;53.20;96742.06;5087692;28;19959;-77
2023/05/31 01:16:54;;;;;;;;;;;;;;;12.64;52.68;96742.88;5105876;28;19949;-76
2023/05/31 01:19:29;;;;;;;;;;;;;;;12.64;52.48;96740.25;5105668;28;19983;-76
2023/05/31 01:22:14;;;;;;;;;;;;;;;12.62;53.10;96741.47;5087669;28;19981;-72
2023/05/31 01:24:53;;;;;;;;;;;;;;;12.60;52.54;96736.47;5087484;28;19962;-75
2023/05/31 01:27:19;;;;;;;;;;;;;;;12.59;52.37;96745.38;5105961;28;19956;-75
2023/05/31 01:29:44;;;;;;;;;;;;;;;12.57;52.34;96750.84;5105441;28;20003;-77
2023/05/31 01:32:13;;;;;;;;;;;;;;;12.55;52.97;96741.56;5105375;28;19965;-76
2023/05/31 01:34:39;;;;;;;;;;;;;;;12.50;52.68;96738.81;5105290;28;19957;-76
2023/05/31 01:37:05;;;;;;;;;;;;;;;12.44;53.83;96740.50;5105536;28;20167;-78
2023/05/31 01:39:31;;;;;;;;;;;;;;;12.41;53.58;96738.31;5105656;28;19956;-71
2023/05/31 01:41:57;;;;;;;;;;;;;;;12.37;53.01;96745.84;5105458;28;20051;-73
2023/05/31 01:44:23;;;;;;;;;;;;;;;12.34;53.15;96742.84;5104784;28;19961;-73
2023/05/31 01:46:49;;;;;;;;;;;;;;;12.30;52.62;96742.47;5105298;28;20156;-73
2023/05/31 01:49:15;;;;;;;;;;;;;;;12.27;53.81;96742.13;5105407;28;19954;-73
2023/05/31 01:51:43;;;;;;;;;;;;;;;12.24;52.86;96735.50;5105162;28;20244;-73
2023/05/31 01:54:09;;;;;;;;;;;;;;;12.23;52.70;96741.78;5105296;28;19940;-73
2023/05/31 01:56:36;;;;;;;;;;;;;;;12.21;52.23;96740.38;5105535;28;19957;-76
2023/05/31 01:59:04;;;;;;;;;;;;;;;12.22;52.99;96744.63;5104824;28;20235;-71
2023/05/31 02:01:30;;;;;;;;;;;;;;;12.22;52.86;96748.06;5104813;28;19959;-81
2023/05/31 02:03:56;;;;;;;;;;;;;;;12.23;52.86;96740.97;5104819;28;20155;-81
2023/05/31 02:06:26;;;;;;;;;;;;;;;12.23;53.43;96739.13;5104807;28;19991;-81
2023/05/31 02:08:53;;;;;;;;;;;;;;;12.23;53.77;96736.50;5105093;28;19951;-81
2023/05/31 02:11:19;;;;;;;;;;;;;;;12.23;52.83;96735.72;5104866;28;19973;-80
2023/05/31 02:13:45;;;;;;;;;;;;;;;12.22;53.04;96742.81;5104544;28;19949;-80
2023/05/31 02:16:11;;;;;;;;;;;;;;;12.21;52.75;96738.56;5105005;28;19954;-76
2023/05/31 02:18:37;;;;;;;;;;;;;;;12.20;53.99;96742.22;5104962;28;19950;-75
2023/05/31 02:21:03;;;;;;;;;;;;;;;12.16;53.63;96741.84;5104935;28;19958;-76
2023/05/31 02:23:28;;;;;;;;;;;;;;;12.13;53.36;96736.22;5104529;28;20248;-76
2023/05/31 02:25:55;;;;;;;;;;;;;;;12.09;53.96;96737.69;5104388;28;19950;-76
2023/05/31 02:28:20;;;;;;;;;;;;;;;12.03;54.98;96736.72;5105083;28;19953;-75
2023/05/31 02:30:56;;;;;;;;;;;;;;;11.97;55.46;96738.44;5104779;28;19981;-76
2023/05/31 02:33:22;;;;;;;;;;;;;;;11.91;54.43;96728.78;5104083;28;19978;-76
2023/05/31 02:35:48;;;;;;;;;;;;;;;11.86;55.11;96733.84;5104573;28;20234;-77
2023/05/31 02:38:14;;;;;;;;;;;;;;;11.82;54.41;96730.06;5104607;28;19957;-76
2023/05/31 02:40:40;;;;;;;;;;;;;;;11.77;55.07;96735.16;5104661;28;20023;-75
2023/05/31 02:43:06;;;;;;;;;;;;;;;11.74;55.60;96739.03;5104193;28;20156;-76
2023/05/31 02:45:34;;;;;;;;;;;;;;;11.72;56.21;96735.03;5104800;28;20248;-76
2023/05/31 02:48:04;;;;;;;;;;;;;;;11.70;56.91;96732.63;5104608;28;20008;-76
2023/05/31 02:50:30;;;;;;;;;;;;;;;11.69;55.67;96744.13;5104910;28;19963;-75
2023/05/31 02:52:56;;;;;;;;;;;;;;;11.68;55.83;96732.03;5104354;28;19967;-76
2023/05/31 02:55:22;;;;;;;;;;;;;;;11.65;55.79;96727.19;5104262;28;19965;-75
2023/05/31 02:57:48;;;;;;;;;;;;;;;11.63;55.43;96731.06;5104572;28;19948;-77
2023/05/31 03:00:14;;;;;;;;;;;;;;;11.60;56.19;96729.69;5104314;28;19960;-75
2023/05/31 03:02:40;;;;;;;;;;;;;;;11.58;55.58;96729.88;5103987;28;19953;-75
2023/05/31 03:05:08;;;;;;;;;;;;;;;11.55;56.67;96730.34;5104255;28;20145;-75
2023/05/31 03:07:35;;;;;;;;;;;;;;;11.55;56.72;96734.78;5104294;28;19950;-74
2023/05/31 03:10:03;;;;;;;;;;;;;;;11.53;56.27;96739.47;5104470;28;19960;-76
2023/05/31 03:12:33;;;;;;;;;;;;;;;11.48;56.09;96728.78;5103888;28;19963;-76
2023/05/31 03:14:59;;;;;;;;;;;;;;;11.46;57.75;96739.50;5104391;28;19962;-82
2023/05/31 03:17:25;;;;;;;;;;;;;;;11.45;56.35;96739.75;5104665;28;20050;-82
2023/05/31 03:19:50;;;;;;;;;;;;;;;11.44;57.30;96741.53;5103921;28;20011;-81
2023/05/31 03:22:16;;;;;;;;;;;;;;;11.42;56.81;96740.16;5103966;28;20011;-81
2023/05/31 03:24:42;;;;;;;;;;;;;;;11.40;58.15;96735.09;5104009;28;19959;-81
2023/05/31 03:27:08;;;;;;;;;;;;;;;11.38;58.00;96732.72;5103973;28;19951;-81
2023/05/31 03:29:38;;;;;;;;;;;;;;;11.37;56.87;96725.84;5086240;28;19998;-83
2023/05/31 03:32:04;;;;;;;;;;;;;;;11.35;57.13;96727.88;5103550;28;19963;-71
2023/05/31 03:34:30;;;;;;;;;;;;;;;11.34;56.50;96726.28;5104825;28;19968;-71
2023/05/31 03:36:56;;;;;;;;;;;;;;;11.32;58.08;96740.66;5107931;28;19960;-72
2023/05/31 03:39:22;;;;;;;;;;;;;;;11.31;57.61;96734.59;5107850;28;19966;-72
2023/05/31 03:41:48;;;;;;;;;;;;;;;11.27;56.68;96741.28;5107290;28;19950;-72
2023/05/31 03:44:13;;;;;;;;;;;;;;;11.23;58.16;96740.09;5107774;28;19956;-72
2023/05/31 03:46:40;;;;;;;;;;;;;;;11.21;57.12;96742.13;5107943;28;19981;-73
2023/05/31 03:49:06;;;;;;;;;;;;;;;11.20;56.87;96740.53;5107749;28;19961;-76
2023/05/31 03:51:32;;;;;;;;;;;;;;;11.19;57.87;96744.16;5107637;28;20259;-75
2023/05/31 03:53:58;;;;;;;;;;;;;;;11.17;57.52;96736.53;5107796;28;19959;-74
2023/05/31 03:56:23;;;;;;;;;;;;;;;11.18;58.08;96738.13;5107219;28;19958;-75
2023/05/31 03:58:49;;;;;;;;;;;;;;;11.18;61.52;96742.56;5107169;28;19966;-76
2023/05/31 04:01:17;;;;;;;;;;;;;;;11.21;57.91;96730.84;5106923;28;20223;-75
2023/05/31 04:03:43;;;;;;;;;;;;;;;11.21;57.37;96739.50;5107211;28;19965;-75
2023/05/31 04:06:10;;;;;;;;;;;;;;;11.22;57.24;96735.09;5107510;28;20280;-71
2023/05/31 04:08:36;;;;;;;;;;;;;;;11.21;59.54;96738.72;5107278;28;19979;-73
2023/05/31 04:11:02;;;;;;;;;;;;;;;11.21;58.49;96736.88;5106736;28;20146;-73
2023/05/31 04:13:28;;;;;;;;;;;;;;;11.21;58.35;96744.75;5107141;28;19969;-74
2023/05/31 04:15:54;;;;;;;;;;;;;;;11.24;59.56;96751.44;5106849;28;19941;-73
2023/05/31 04:18:20;;;;;;;;;;;;;;;11.27;59.99;96743.09;5106688;28;19958;-73
2023/05/31 04:20:45;;;;;;;;;;;;;;;11.29;58.07;96743.69;5106705;28;19956;-73
2023/05/31 04:23:11;;;;;;;;;;;;;;;11.32;59.39;96748.53;5107008;28;19977;-73
2023/05/31 04:25:37;;;;;;;;;;;;;;;11.38;59.75;96752.91;5106575;28;19953;-75
2023/05/31 04:28:06;;;;;;;;;;;;;;;11.42;58.93;96751.44;5106641;28;20127;-71
2023/05/31 04:30:33;;;;;;;;;;;;;;;11.47;58.44;96745.56;5106214;28;19958;-71
2023/05/31 04:32:58;;;;;;;;;;;;;;;11.51;58.80;96750.19;5106263;28;19962;-71
2023/05/31 04:35:28;;;;;;;;;;;;;;;11.58;59.86;96740.41;5106676;28;19955;-71
2023/05/31 04:37:58;;;;;;;;;;;;;;;11.67;58.35;96750.63;5106510;28;19960;-71
2023/05/31 04:40:25;;;;;;;;;;;;;;;11.72;57.84;96745.53;5106520;28;19954;-71
2023/05/31 04:42:51;;;;;;;;;;;;;;;11.79;58.75;96751.53;5106054;28;19942;-72
2023/05/31 04:45:17;;;;;;;;;;;;;;;11.86;58.49;96752.25;5105830;28;19962;-76
2023/05/31 04:47:45;;;;;;;;;;;;;;;11.93;58.39;96750.41;5106222;28;20013;-76
2023/05/31 04:50:11;;;;;;;;;;;;;;;12.03;58.45;96752.50;5105919;28;19959;-76
2023/05/31 04:52:39;;;;;;;;;;;;;;;12.12;57.94;96753.84;5106140;28;19967;-75
2023/05/31 04:55:06;;;;;;;;;;;;;;;12.23;58.33;96756.75;5105898;28;20236;-76
2023/05/31 04:57:32;;;;;;;;;;;;;;;12.35;58.33;96762.88;5105809;28;19957;-75
2023/05/31 04:59:58;;;;;;;;;;;;;;;12.47;58.25;96762.91;5105469;28;19968;-71
2023/05/31 05:02:24;;;;;;;;;;;;;;;12.60;57.81;96768.03;5105884;28;20164;-75
2023/05/31 05:04:50;;;;;;;;;;;;;;;12.79;58.29;96766.16;5105844;28;20146;-73
2023/05/31 05:07:16;;;;;;;;;;;;;;;12.95;56.99;96760.22;5105917;28;20257;-72
2023/05/31 05:09:42;;;;;;;;;;;;;;;13.12;57.05;96765.69;5087646;28;20028;-73
2023/05/31 05:12:08;;;;;;;;;;;;;;;13.29;56.57;96762.41;5105186;28;20250;-72
2023/05/31 05:14:34;;;;;;;;;;;;;;;13.45;56.26;96763.56;5105330;28;19982;-71
2023/05/31 05:17:00;;;;;;;;;;;;;;;13.58;56.12;96761.50;5087209;28;20011;-72
2023/05/31 05:19:26;;;;;;;;;;;;;;;13.75;55.54;96758.19;5105873;28;19959;-75
2023/05/31 05:21:52;;;;;;;;;;;;;;;13.89;55.47;96759.53;5105288;28;19957;-76
2023/05/31 05:24:18;;;;;;;;;;;;;;;14.08;55.20;96754.94;5105268;28;20012;-77
2023/05/31 05:26:44;;;;;;;;;;;;;;;14.25;54.84;96755.00;5105330;28;20003;-75
2023/05/31 05:29:10;;;;;;;;;;;;;;;14.44;54.35;96754.84;5104932;28;19958;-76
2023/05/31 05:31:36;;;;;;;;;;;;;;;14.59;54.08;96747.25;5087048;28;19955;-76
2023/05/31 05:34:02;;;;;;;;;;;;;;;14.73;53.56;96745.94;5105354;28;20019;-76
2023/05/31 05:36:27;;;;;;;;;;;;;;;14.89;53.30;96752.28;5105444;28;20025;-76
2023/05/31 05:38:55;;;;;;;;;;;;;;;15.07;53.42;96748.63;5105277;28;19956;-83
2023/05/31 05:41:21;;;;;;;;;;;;;;;15.27;53.09;96752.66;5086760;28;20148;-76
2023/05/31 05:43:47;;;;;;;;;;;;;;;15.39;52.12;96751.53;5105207;28;19972;-76
2023/05/31 05:46:13;;;;;;;;;;;;;;;15.55;52.13;96752.53;5104726;28;19957;-76
2023/05/31 05:48:38;;;;;;;;;;;;;;;15.71;51.82;96756.22;5104715;28;19955;-76
2023/05/31 05:51:04;;;;;;;;;;;;;;;15.89;51.57;96759.66;5104663;28;19951;-76
2023/05/31 05:53:30;;;;;;;;;;;;;;;16.07;51.60;96755.94;5104650;28;19975;-76
2023/05/31 05:55:56;;;;;;;;;;;;;;;16.25;50.83;96758.28;5104723;28;19950;-75
2023/05/31 05:58:22;;;;;;;;;;;;;;;16.43;50.77;96759.81;5104023;28;20241;-75
2023/05/31 06:00:48;;;;;;;;;;;;;;;16.63;50.16;96761.88;5104811;28;19981;-75
2023/05/31 06:03:14;;;;;;;;;;;;;;;16.82;49.66;96754.44;5104824;28;19958;-75
2023/05/31 06:05:43;;;;;;;;;;;;;;;17.01;50.00;96758.34;5104748;28;20241;-75
2023/05/31 06:08:10;;;;;;;;;;;;;;;17.17;49.50;96759.25;5104847;28;19953;-75
2023/05/31 06:10:36;;;;;;;;;;;;;;;17.35;49.09;96762.59;5104705;28;19956;-76
2023/05/31 06:13:02;;;;;;;;;;;;;;;17.53;48.26;96758.75;5104266;28;20210;-76
2023/05/31 06:15:28;;;;;;;;;;;;;;;17.64;48.12;96757.78;5104666;28;19955;-71
2023/05/31 06:17:54;;;;;;;;;;;;;;;17.78;48.04;96753.59;5086402;28;20134;-77
2023/05/31 06:20:21;;;;;;;;;;;;;;;17.93;48.28;96757.44;5104442;28;20231;-75
2023/05/31 06:22:47;;;;;;;;;;;;;;;18.05;47.11;96758.81;5105009;28;19952;-75
2023/05/31 06:25:13;;;;;;;;;;;;;;;18.15;43.08;96751.97;5104875;28;19957;-75
2023/05/31 06:27:39;;;;;;;;;;;;;;;18.30;45.40;96761.88;5086623;28;19956;-75
2023/05/31 06:30:05;;;;;;;;;;;;;;;18.45;45.16;96760.06;5104557;28;19949;-76
2023/05/31 06:32:31;;;;;;;;;;;;;;;18.65;46.11;96762.00;5104474;28;20241;-72
2023/05/31 06:34:57;;;;;;;;;;;;;;;18.77;44.56;96760.94;5104795;28;19956;-76
2023/05/31 06:37:23;;;;;;;;;;;;;;;18.94;43.35;96744.78;5086656;28;20146;-72
2023/05/31 06:39:49;;;;;;;;;;;;;;;19.13;44.22;96750.41;5104578;28;19948;-73
2023/05/31 06:42:15;;;;;;;;;;;;;;;19.27;42.21;96756.78;5104144;28;19937;-73
2023/05/31 06:44:42;;;;;;;;;;;;;;;19.35;43.67;96758.13;5105030;28;19952;-73
2023/05/31 06:47:08;;;;;;;;;;;;;;;19.33;44.02;96755.72;5104027;28;19953;-72
2023/05/31 06:49:34;;;;;;;;;;;;;;;19.35;39.70;96752.81;5104282;28;20238;-72
2023/05/31 06:52:00;;;;;;;;;;;;;;;19.26;40.42;96744.56;5104054;28;20030;-82
2023/05/31 06:54:26;;;;;;;;;;;;;;;19.24;40.77;96755.47;5104565;28;19954;-82
2023/05/31 06:56:52;;;;;;;;;;;;;;;19.12;41.54;96757.56;5104338;28;19957;-86
2023/05/31 06:59:18;;;;;;;;;;;;;;;19.15;41.18;96751.75;5104316;28;19956;-85
2023/05/31 07:01:44;;;;;;;;;;;;;;;19.01;41.35;96754.13;5104499;28;19954;-85
2023/05/31 07:04:10;;;;;;;;;;;;;;;18.91;40.41;96750.66;5104416;28;19960;-85
2023/05/31 07:06:37;;;;;;;;;;;;;;;18.74;40.52;96756.16;5104507;28;19952;-86
2023/05/31 07:09:04;;;;;;;;;;;;;;;18.69;41.40;96748.16;5103979;28;19958;-84
2023/05/31 07:11:29;;;;;;;;;;;;;;;18.84;40.84;96751.69;5108429;28;19945;-72
2023/05/31 07:13:59;;;;;;;;;;;;;;;18.94;40.57;96742.13;5107784;28;19962;-86
2023/05/31 07:16:25;;;;;;;;;;;;;;;18.95;41.55;96736.56;5090273;28;19962;-85
2023/05/31 07:18:51;;;;;;;;;;;;;;;19.05;39.74;96738.44;5089744;28;19962;-85
2023/05/31 07:21:16;;;;;;;;;;;;;;;19.25;42.52;96745.63;5107800;28;19957;-86
2023/05/31 07:23:42;;;;;;;;;;;;;;;19.43;41.47;96746.97;5108132;28;19959;-85
2023/05/31 07:26:08;;;;;;;;;;;;;;;19.33;40.22;96742.44;5107888;28;20025;-87
2023/05/31 07:28:34;;;;;;;;;;;;;;;19.36;41.73;96738.44;5089957;28;19954;-76
2023/05/31 07:31:01;;;;;;;;;;;;;;;19.52;39.73;96741.88;5107942;28;20187;-73
2023/05/31 07:33:26;;;;;;;;;;;;;;;19.56;40.93;96741.06;5089574;28;19969;-72
2023/05/31 07:35:52;;;;;;;;;;;;;;;19.48;39.73;96753.06;5089685;28;19958;-72
2023/05/31 07:38:18;;;;;;;;;;;;;;;19.38;39.49;96733.66;5107222;28;19957;-73
2023/05/31 07:40:44;;;;;;;;;;;;;;;19.55;41.89;96739.50;5108050;28;19946;-72
2023/05/31 07:43:10;;;;;;;;;;;;;;;19.77;40.27;96736.56;5107772;28;19955;-72
2023/05/31 07:45:38;;;;;;;;;;;;;;;20.03;41.65;96729.31;5107965;28;20219;-84
2023/05/31 07:48:04;;;;;;;;;;;;;;;20.25;41.04;96728.16;5089506;28;20141;-73
2023/05/31 07:50:30;;;;;;;;;;;;;;;20.43;41.11;96732.06;5088945;28;19964;-86
2023/05/31 07:52:56;;;;;;;;;;;;;;;20.52;39.79;96730.44;5107153;28;19964;-88
2023/05/31 07:55:22;;;;;;;;;;;;;;;20.59;39.27;96724.81;5089446;28;20115;-85
2023/05/31 07:57:48;;;;;;;;;;;;;;;20.67;38.58;96722.38;5106849;28;20259;-87
2023/05/31 08:00:14;;;;;;;;;;;;;;;20.60;38.53;96719.22;5089143;28;19961;-88
2023/05/31 08:02:41;;;;;;;;;;;;;;;20.64;39.80;96732.78;5107382;28;19960;-85
2023/05/31 08:05:07;;;;;;;;;;;;;;;20.70;38.89;96721.03;5089148;28;19950;-90
2023/05/31 08:07:33;;;;;;;;;;;;;;;20.71;38.71;96725.28;5107291;28;20149;-77
2023/05/31 08:09:59;;;;;;;;;;;;;;;20.63;37.76;96720.53;5106691;28;19977;-77
2023/05/31 08:12:25;;;;;;;;;;;;;;;20.55;38.14;96716.53;5106699;28;19962;-76
2023/05/31 08:14:51;;;;;;;;;;;;;;;20.64;38.60;96722.94;5106775;28;19951;-76
2023/05/31 08:17:17;;;;;;;;;;;;;;;20.71;37.89;96722.63;5107113;28;20026;-75
2023/05/31 08:19:43;;;;;;;;;;;;;;;20.76;38.58;96727.13;5106549;28;19986;-76
2023/05/31 08:22:09;;;;;;;;;;;;;;;20.89;38.38;96723.81;5106403;28;19957;-74
2023/05/31 08:24:35;;;;;;;;;;;;;;;21.07;38.73;96733.06;5106917;28;19961;-73
2023/05/31 08:27:01;;;;;;;;;;;;;;;21.27;37.90;96727.56;5106337;28;19963;-87
2023/05/31 08:29:28;;;;;;;;;;;;;;;21.23;37.05;96728.38;5106655;28;19956;-84
2023/05/31 08:31:54;;;;;;;;;;;;;;;21.32;38.19;96732.06;5106878;28;19961;-85
2023/05/31 08:34:19;;;;;;;;;;;;;;;21.39;38.15;96729.84;5106998;28;20032;-88
2023/05/31 08:36:47;;;;;;;;;;;;;;;21.53;37.25;96721.25;5106757;28;20022;-82
2023/05/31 08:39:13;;;;;;;;;;;;;;;21.31;35.82;96724.31;5106199;28;19944;-90
2023/05/31 08:42:11;;;;;;;;;;;;;;;21.32;37.42;96725.94;5106930;28;20262;-74
2023/05/31 08:44:37;;;;;;;;;;;;;;;21.45;37.27;96719.97;5051066;28;19962;-73
2023/05/31 08:47:03;;;;;;;;;;;;;;;21.42;37.08;96723.22;5106319;28;19961;-73
2023/05/31 08:49:30;;;;;;;;;;;;;;;21.46;36.43;96716.19;5106290;28;19963;-71
2023/05/31 08:51:58;;;;;;;;;;;;;;;21.53;37.25;96715.91;5106473;28;19958;-73
2023/05/31 08:54:24;;;;;;;;;;;;;;;21.64;36.49;96717.38;5106367;28;19963;-72
2023/05/31 08:56:50;;;;;;;;;;;;;;;21.78;36.31;96715.63;5105739;28;19959;-73
2023/05/31 08:59:18;;;;;;;;;;;;;;;21.97;37.61;96714.91;5106275;28;19956;-74
2023/05/31 09:01:43;;;;;;;;;;;;;;;22.02;35.66;96714.84;5087751;28;19947;-76
2023/05/31 09:04:09;;;;;;;;;;;;;;;21.95;35.43;96717.06;5106411;28;20025;-73
2023/05/31 09:06:36;;;;;;;;;;;;;;;22.07;36.54;96725.47;5088219;28;20031;-75
2023/05/31 09:09:02;;;;;;;;;;;;;;;22.19;36.11;96707.16;5106292;28;19957;-74
2023/05/31 09:11:28;;;;;;;;;;;;;;;22.37;35.96;96715.53;5105929;28;19971;-73
2023/05/31 09:13:54;;;;;;;;;;;;;;;22.53;36.22;96708.88;5105690;28;19986;-74
2023/05/31 09:16:22;;;;;;;;;;;;;;;22.47;35.85;96707.38;5105777;28;19957;-73
2023/05/31 09:18:48;;;;;;;;;;;;;;;22.52;35.13;96714.53;5105965;28;19965;-76
2023/05/31 09:21:14;;;;;;;;;;;;;;;22.44;35.45;96718.63;5105801;28;19957;-73
2023/05/31 09:24:00;;;;;;;;;;;;;;;22.56;35.62;96715.53;5105716;28;19962;-73
2023/05/31 09:26:28;;;;;;;;;;;;;;;22.37;32.92;96726.22;5104831;28;20020;-73
2023/05/31 09:28:55;;;;;;;;;;;;;;;22.35;34.61;96723.03;5104823;28;20269;-73
2023/05/31 09:31:21;;;;;;;;;;;;;;;22.39;32.49;96700.78;5105439;28;19993;-73
2023/05/31 09:33:48;;;;;;;;;;;;;;;22.39;33.78;96714.16;5105176;28;19964;-74
2023/05/31 09:36:22;;;;;;;;;;;;;;;22.44;33.67;96724.75;5105062;28;19954;-76
2023/05/31 09:38:49;;;;;;;;;;;;;;;22.33;32.35;96711.84;5105699;28;19952;-73
2023/05/31 09:41:19;;;;;;;;;;;;;;;22.37;34.13;96702.97;5105536;28;19946;-73
2023/05/31 09:43:46;;;;;;;;;;;;;;;22.39;34.12;96708.03;5105392;28;19957;-72
2023/05/31 09:46:16;;;;;;;;;;;;;;;22.54;33.42;96701.69;5105452;28;19954;-72
2023/05/31 09:48:43;;;;;;;;;;;;;;;22.68;33.22;96700.66;5105481;28;19954;-72
2023/05/31 09:51:09;;;;;;;;;;;;;;;22.78;32.13;96688.22;5105247;28;19966;-72
2023/05/31 09:53:43;;;;;;;;;;;;;;;22.80;32.76;96683.38;5105324;28;19952;-72
2023/05/31 09:56:10;;;;;;;;;;;;;;;22.84;33.72;96695.09;5105227;28;19959;-75
2023/05/31 09:58:36;;;;;;;;;;;;;;;22.90;32.67;96689.34;5105095;28;19958;-76
2023/05/31 10:01:02;;;;;;;;;;;;;;;22.85;32.62;96691.34;5105308;28;19961;-75
2023/05/31 10:03:29;;;;;;;;;;;;;;;22.83;34.10;96683.59;5104896;28;19963;-75
2023/05/31 10:05:55;;;;;;;;;;;;;;;22.98;32.72;96692.47;5086647;28;19957;-76
2023/05/31 10:08:24;;;;;;;;;;;;;;;23.18;33.90;96678.00;5070089;28;20240;-76
2023/05/31 10:10:52;;;;;;;;;;;;;;;23.28;32.54;96694.66;5104958;28;20255;-76
2023/05/31 10:13:18;;;;;;;;;;;;;;;23.18;30.84;96702.88;5104824;28;20116;-76
2023/05/31 10:15:46;;;;;;;;;;;;;;;23.07;32.56;96688.84;5105138;28;20031;-73
2023/05/31 10:18:16;;;;;;;;;;;;;;;23.27;33.11;96692.31;5104930;28;19961;-72
2023/05/31 10:20:50;;;;;;;;;;;;;;;23.44;31.71;96686.38;5086524;28;19963;-73
2023/05/31 10:23:23;;;;;;;;;;;;;;;23.31;30.67;96682.59;5105079;28;19956;-73
2023/05/31 10:25:56;;;;;;;;;;;;;;;23.45;32.37;96698.66;5104308;28;19958;-73
2023/05/31 10:28:28;;;;;;;;;;;;;;;23.57;31.33;96695.53;5104605;28;19953;-73
2023/05/31 10:30:54;;;;;;;;;;;;;;;23.60;30.69;96671.66;5104577;28;19959;-72
2023/05/31 10:33:20;;;;;;;;;;;;;;;23.64;31.06;96677.97;5104701;28;19964;-75
2023/05/31 10:35:47;;;;;;;;;;;;;;;23.80;32.16;96683.88;5104940;28;19950;-75
2023/05/31 10:38:13;;;;;;;;;;;;;;;23.89;32.14;96675.94;5104743;28;19965;-75
2023/05/31 10:40:45;;;;;;;;;;;;;;;24.06;32.11;96670.75;5104679;28;19956;-75
2023/05/31 10:43:23;;;;;;;;;;;;;;;23.89;29.49;96679.41;5087276;28;19958;-76
2023/05/31 10:46:01;;;;;;;;;;;;;;;23.98;30.36;96678.69;5108958;28;19951;-75
2023/05/31 10:48:30;;;;;;;;;;;;;;;24.03;31.26;96679.41;5109061;28;19962;-75
2023/05/31 10:50:57;;;;;;;;;;;;;;;24.19;31.32;96663.00;5108898;28;19952;-71
2023/05/31 10:53:30;;;;;;;;;;;;;;;24.42;31.85;96658.50;5108726;28;20022;-74
2023/05/31 10:56:06;;;;;;;;;;;;;;;24.65;29.93;96656.66;5108647;28;19952;-75
2023/05/31 10:58:38;;;;;;;;;;;;;;;24.77;31.88;96670.34;5108704;28;19953;-73
2023/05/31 11:01:05;;;;;;;;;;;;;;;24.67;30.35;96668.69;5108509;28;19942;-74
2023/05/31 11:03:33;;;;;;;;;;;;;;;24.68;30.67;96659.53;5090521;28;19957;-73
2023/05/31 11:06:05;;;;;;;;;;;;;;;24.64;30.78;96658.56;5108269;28;20149;-74
2023/05/31 11:08:32;;;;;;;;;;;;;;;24.66;29.54;96656.38;5108101;28;19953;-78
2023/05/31 11:11:16;;;;;;;;;;;;;;;24.50;29.56;96674.69;5107917;28;20099;-74
2023/05/31 11:13:55;;;;;;;;;;;;;;;24.58;30.86;96659.78;5089966;28;20077;-85
2023/05/31 11:16:21;;;;;;;;;;;;;;;24.84;31.37;96654.63;5108262;28;19979;-85
2023/05/31 11:18:47;;;;;;;;;;;;;;;25.05;30.08;96668.34;5108264;28;20230;-86
2023/05/31 11:21:32;;;;;;;;;;;;;;;25.03;30.08;96662.47;5108150;28;19953;-85
2023/05/31 11:23:58;;;;;;;;;;;;;;;25.28;30.83;96650.34;5107550;28;19964;-84
2023/05/31 11:26:24;;;;;;;;;;;;;;;25.42;30.35;96660.97;5107816;28;19962;-74
2023/05/31 11:28:52;;;;;;;;;;;;;;;25.54;29.89;96641.63;5089918;28;19960;-73
2023/05/31 11:31:37;;;;;;;;;;;;;;;25.59;28.85;96646.84;5089709;28;19949;-75
2023/05/31 11:34:20;;;;;;;;;;;;;;;25.50;29.30;96656.75;5107219;28;19970;-74
2023/05/31 11:36:46;;;;;;;;;;;;;;;25.56;29.49;96647.47;5108048;28;19949;-74
2023/05/31 11:39:12;;;;;;;;;;;;;;;25.58;26.67;96636.44;5107466;28;19959;-75
2023/05/31 11:41:38;;;;;;;;;;;;;;;25.60;29.17;96642.25;5107858;28;19942;-75
2023/05/31 11:44:06;;;;;;;;;;;;;;;25.60;26.55;96626.13;5107401;28;19952;-75
2023/05/31 11:46:32;;;;;;;;;;;;;;;25.76;28.61;96626.53;5107827;28;19953;-72
2023/05/31 11:48:58;;;;;;;;;;;;;;;25.72;27.93;96645.97;5107274;28;19965;-76
2023/05/31 11:51:24;;;;;;;;;;;;;;;25.55;27.23;96632.44;5072554;28;19959;-75
2023/05/31 11:53:56;;;;;;;;;;;;;;;25.66;29.86;96628.41;5107788;28;19964;-75
2023/05/31 11:56:37;;;;;;;;;;;;;;;25.88;29.56;96627.50;5106576;28;20018;-75
2023/05/31 11:59:03;;;;;;;;;;;;;;;26.02;28.81;96615.88;5089306;28;19961;-76
2023/05/31 12:01:36;;;;;;;;;;;;;;;26.07;29.16;96611.13;5107391;28;20027;-76
2023/05/31 12:04:02;;;;;;;;;;;;;;;26.04;28.90;96616.34;5107681;28;19942;-75
2023/05/31 12:06:28;;;;;;;;;;;;;;;26.00;28.32;96629.63;5107169;28;19954;-73
2023/05/31 12:08:54;;;;;;;;;;;;;;;25.81;27.35;96627.19;5107270;28;19949;-78
2023/05/31 12:11:21;;;;;;;;;;;;;;;25.65;26.73;96624.13;5106838;28;19959;-77
2023/05/31 12:13:53;;;;;;;;;;;;;;;25.56;27.40;96619.84;5106780;28;19957;-77
2023/05/31 12:16:18;;;;;;;;;;;;;;;25.60;28.52;96623.44;5107059;28;19957;-78
2023/05/31 12:18:47;;;;;;;;;;;;;;;25.41;26.41;96619.13;5088975;28;20007;-77
2023/05/31 12:21:15;;;;;;;;;;;;;;;25.31;27.06;96619.41;5106924;28;19962;-76
2023/05/31 12:23:57;;;;;;;;;;;;;;;25.34;29.27;96620.69;5106919;28;19956;-87
2023/05/31 12:26:26;;;;;;;;;;;;;;;25.42;26.55;96622.59;5106968;28;19938;-72
2023/05/31 12:28:52;;;;;;;;;;;;;;;25.45;27.76;96625.47;5106482;28;19965;-72
2023/05/31 12:31:19;;;;;;;;;;;;;;;25.56;27.91;96626.00;5106799;28;20230;-72
2023/05/31 12:33:50;;;;;;;;;;;;;;;25.65;27.95;96624.13;5106666;28;19964;-73
2023/05/31 12:36:16;;;;;;;;;;;;;;;25.72;26.44;96612.91;5106594;28;19950;-71
2023/05/31 12:38:42;;;;;;;;;;;;;;;25.76;28.18;96605.03;5106423;28;19953;-72
2023/05/31 12:41:08;;;;;;;;;;;;;;;25.95;28.18;96608.25;5106707;28;19961;-72
2023/05/31 12:43:34;;;;;;;;;;;;;;;26.05;28.39;96602.59;5106593;28;19992;-75
2023/05/31 12:46:00;;;;;;;;;;;;;;;26.17;28.19;96601.97;5106449;28;19956;-75
2023/05/31 12:48:26;;;;;;;;;;;;;;;26.17;27.89;96604.66;5106413;28;19964;-74